createdAt,value
2019-01-18T18:32:16.711Z,91.50
2019-01-18T18:32:39.426Z,91.50
2019-01-18T18:33:02.050Z,91.60
2019-01-18T18:33:24.811Z,91.40
2019-01-18T18:33:50.582Z,91.20
2019-01-18T18:34:12.223Z,91.10
2019-01-18T18:34:34.868Z,91.30
2019-01-18T18:34:57.812Z,91.00
2019-01-18T18:35:20.851Z,91.20
2019-01-18T18:35:43.453Z,91.30
2019-01-18T18:36:06.088Z,91.40
2019-01-18T18:36:28.808Z,91.50
2019-01-18T18:36:51.450Z,91.60
2019-01-18T18:37:14.232Z,91.60
2019-01-18T18:37:37.024Z,91.50
2019-01-18T18:38:00.750Z,91.70
2019-01-18T18:38:23.370Z,91.80
2019-01-18T18:38:46.092Z,91.90
2019-01-18T18:39:09.209Z,92.00
2019-01-18T18:39:33.133Z,91.60
2019-01-18T18:39:56.089Z,91.50
2019-01-18T18:40:18.849Z,91.50
2019-01-18T18:40:41.531Z,91.50
2019-01-18T18:41:05.015Z,91.70
2019-01-18T18:41:28.476Z,91.50
2019-01-18T18:41:50.999Z,91.50
2019-01-18T18:42:13.722Z,91.80
2019-01-18T18:42:36.310Z,91.90
2019-01-18T18:43:00.491Z,91.80
2019-01-18T18:43:23.169Z,91.80
2019-01-18T18:43:46.943Z,91.70
2019-01-18T18:44:09.570Z,91.90
2019-01-18T18:44:32.090Z,91.80
2019-01-18T18:44:54.729Z,91.60
2019-01-18T18:45:17.448Z,91.30
2019-01-18T18:45:40.128Z,91.30
2019-01-18T18:46:02.665Z,91.50
2019-01-18T18:46:25.342Z,91.70
2019-01-18T18:46:47.995Z,91.70
2019-01-18T18:47:10.591Z,91.80
2019-01-18T18:47:33.149Z,91.70
2019-01-18T18:47:55.890Z,91.50
2019-01-18T18:48:18.929Z,91.40
2019-01-18T18:48:41.652Z,91.50
2019-01-18T18:49:04.384Z,91.50
2019-01-18T18:49:26.983Z,91.40
2019-01-18T18:49:49.751Z,91.50
2019-01-18T18:50:12.430Z,91.40
2019-01-18T18:50:35.070Z,91.20
2019-01-18T18:50:59.729Z,91.30
2019-01-18T18:51:22.391Z,91.20
2019-01-18T18:51:45.213Z,91.40
2019-01-18T18:52:07.909Z,91.60
2019-01-18T18:52:30.690Z,91.40
2019-01-18T18:52:53.269Z,91.50
2019-01-18T18:53:15.930Z,91.50
2019-01-18T18:53:38.560Z,91.50
2019-01-18T18:54:01.665Z,91.50
2019-01-18T18:54:24.451Z,91.20
2019-01-18T18:54:47.570Z,90.80
2019-01-18T18:55:10.309Z,91.10
2019-01-18T18:55:32.992Z,91.30
2019-01-18T18:55:55.995Z,91.20
2019-01-18T18:56:18.649Z,91.10
2019-01-18T18:56:41.249Z,91.10
2019-01-18T18:57:03.813Z,91.20
2019-01-18T18:57:26.550Z,91.30
2019-01-18T18:57:49.230Z,91.20
2019-01-18T18:58:12.218Z,91.20
2019-01-18T18:58:34.909Z,90.90
2019-01-18T18:58:57.611Z,91.20
2019-01-18T18:59:20.367Z,91.10
2019-01-18T18:59:43.411Z,90.90
2019-01-18T19:00:06.041Z,91.10
2019-01-18T19:00:29.170Z,91.10
2019-01-18T19:00:51.908Z,90.80
2019-01-18T19:01:14.943Z,91.00
2019-01-18T19:01:37.663Z,91.10
2019-01-18T19:02:00.433Z,91.10
2019-01-18T19:02:23.031Z,91.00
2019-01-18T19:02:45.808Z,91.00
2019-01-18T19:03:09.823Z,91.00
2019-01-18T19:03:32.628Z,91.10
2019-01-18T19:03:57.476Z,91.20
2019-01-18T19:04:19.537Z,91.20
2019-01-18T19:04:43.870Z,91.40
2019-01-18T19:05:06.591Z,91.40
2019-01-18T19:05:29.608Z,91.70
2019-01-18T19:05:52.778Z,91.50
2019-01-18T19:06:15.423Z,91.30
2019-01-18T19:06:40.270Z,90.90
2019-01-18T19:07:02.810Z,91.20
2019-01-18T19:07:25.441Z,91.10
2019-01-18T19:07:48.191Z,91.10
2019-01-18T19:08:10.838Z,90.90
2019-01-18T19:08:33.588Z,91.10
2019-01-18T19:08:56.349Z,91.20
2019-01-18T19:09:19.190Z,91.30
2019-01-18T19:09:41.710Z,91.40
2019-01-18T19:10:04.270Z,91.30
2019-01-18T19:10:26.950Z,91.20
2019-01-18T19:10:49.663Z,91.00
2019-01-18T19:11:12.383Z,90.90
2019-01-18T19:11:34.926Z,90.90
2019-01-18T19:11:57.542Z,90.90
2019-01-18T19:12:20.169Z,91.00
2019-01-18T19:12:42.648Z,90.90
2019-01-18T19:13:05.268Z,90.90
2019-01-18T19:13:28.351Z,91.00
2019-01-18T19:13:51.053Z,91.00
2019-01-18T19:14:13.615Z,91.10
2019-01-18T19:14:36.296Z,91.20
2019-01-18T19:14:59.053Z,91.20
2019-01-18T19:15:21.671Z,91.20
2019-01-18T19:15:44.454Z,91.40
2019-01-18T19:16:07.194Z,91.40
2019-01-18T19:16:30.312Z,91.20
2019-01-18T19:16:52.872Z,91.40
2019-01-18T19:17:15.581Z,91.20
2019-01-18T19:17:38.211Z,91.20
2019-01-18T19:18:00.933Z,91.20
2019-01-18T19:18:24.192Z,90.90
2019-01-18T19:18:46.813Z,90.80
2019-01-18T19:19:09.356Z,90.90
2019-01-18T19:19:32.573Z,90.80
2019-01-18T19:19:55.175Z,90.80
2019-01-18T19:20:17.812Z,90.80
2019-01-18T19:20:40.554Z,90.80
2019-01-18T19:21:03.213Z,90.70
2019-01-18T19:21:25.831Z,90.80
2019-01-18T19:21:48.492Z,90.70
2019-01-18T19:22:11.170Z,90.90
2019-01-18T19:22:33.972Z,90.70
2019-01-18T19:22:56.672Z,90.90
2019-01-18T19:23:19.425Z,90.90
2019-01-18T19:23:42.151Z,91.10
2019-01-18T19:24:04.898Z,91.10
2019-01-18T19:24:27.611Z,91.00
2019-01-18T19:24:50.412Z,91.10
2019-01-18T19:25:13.151Z,91.00
2019-01-18T19:25:35.830Z,91.20
2019-01-18T19:25:58.430Z,91.10
2019-01-18T19:26:22.111Z,91.20
2019-01-18T19:26:46.293Z,91.40
2019-01-18T19:27:08.970Z,91.40
2019-01-18T19:27:31.651Z,91.30
2019-01-18T19:27:54.710Z,91.30
2019-01-18T19:28:17.330Z,91.60
2019-01-18T19:28:40.066Z,91.70
2019-01-18T19:29:02.809Z,91.70
2019-01-18T19:29:25.410Z,91.50
2019-01-18T19:29:48.308Z,91.40
2019-01-18T19:30:10.949Z,91.40
2019-01-18T19:30:33.666Z,91.40
2019-01-18T19:30:56.850Z,91.40
2019-01-18T19:31:19.610Z,91.40
2019-01-18T19:31:42.330Z,91.50
2019-01-18T19:32:05.030Z,91.10
2019-01-18T19:32:27.712Z,90.90
2019-01-18T19:32:50.430Z,91.00
2019-01-18T19:33:13.291Z,91.00
2019-01-18T19:33:35.744Z,90.70
2019-01-18T19:34:04.400Z,90.80
2019-01-18T19:34:22.917Z,90.90
2019-01-18T19:34:45.510Z,90.70
2019-01-18T19:35:08.251Z,90.60
2019-01-18T19:35:33.823Z,90.70
2019-01-18T19:35:56.610Z,90.70
2019-01-18T19:36:19.670Z,90.80
2019-01-18T19:36:42.307Z,90.90
2019-01-18T19:37:05.023Z,90.80
2019-01-18T19:37:27.730Z,90.90
2019-01-18T19:37:50.464Z,90.80
2019-01-18T19:38:13.150Z,90.80
2019-01-18T19:38:38.785Z,90.80
2019-01-18T19:39:01.381Z,90.90
2019-01-18T19:39:24.225Z,90.80
2019-01-18T19:39:47.010Z,90.80
2019-01-18T19:40:12.350Z,90.60
2019-01-18T19:40:35.249Z,90.40
2019-01-18T19:40:58.230Z,90.50
2019-01-18T19:41:20.770Z,90.60
2019-01-18T19:41:43.424Z,90.50
2019-01-18T19:42:06.172Z,90.70
2019-01-18T19:42:28.787Z,90.70
2019-01-18T19:42:51.411Z,90.60
2019-01-18T19:43:14.050Z,90.50
2019-01-18T19:43:36.705Z,90.50
2019-01-18T19:43:59.430Z,90.40
2019-01-18T19:44:22.330Z,90.40
2019-01-18T19:44:45.169Z,90.40
2019-01-18T19:45:08.270Z,90.60
2019-01-18T19:45:30.974Z,90.60
2019-01-18T19:45:54.372Z,90.60
2019-01-18T19:46:17.069Z,90.70
2019-01-18T19:46:39.610Z,90.80
2019-01-18T19:47:02.194Z,90.70
2019-01-18T19:47:26.057Z,90.70
2019-01-18T19:47:49.279Z,90.60
2019-01-18T19:48:13.450Z,90.70
2019-01-18T19:48:36.590Z,90.70
2019-01-18T19:48:59.264Z,90.90
2019-01-18T19:49:22.090Z,91.00
2019-01-18T19:49:44.788Z,91.20
2019-01-18T19:50:07.390Z,91.10
2019-01-18T19:50:30.182Z,91.10
2019-01-18T19:50:53.390Z,91.10
2019-01-18T19:51:16.190Z,91.30
2019-01-18T19:51:39.149Z,91.30
2019-01-18T19:52:01.781Z,91.30
2019-01-18T19:52:24.549Z,91.30
2019-01-18T19:52:47.190Z,91.30
2019-01-18T19:53:09.819Z,91.30
2019-01-18T19:53:32.350Z,91.50
2019-01-18T19:53:54.894Z,91.50
2019-01-18T19:54:17.439Z,91.50
2019-01-18T19:54:40.022Z,91.50
2019-01-18T19:55:02.622Z,91.60
2019-01-18T19:55:25.270Z,91.70
2019-01-18T19:55:47.929Z,91.90
2019-01-18T19:56:10.770Z,92.10
2019-01-18T19:56:33.335Z,92.10
2019-01-18T19:56:56.090Z,92.10
2019-01-18T19:57:18.729Z,92.10
2019-01-18T19:57:42.450Z,92.00
2019-01-18T19:58:05.090Z,92.10
2019-01-18T19:58:27.628Z,92.20
2019-01-18T19:58:51.862Z,92.20
2019-01-18T19:59:14.770Z,92.10
2019-01-18T19:59:37.749Z,92.00
2019-01-18T20:00:00.302Z,91.90
2019-01-18T20:00:22.892Z,92.00
2019-01-18T20:00:45.594Z,92.10
2019-01-18T20:01:08.339Z,92.00
2019-01-18T20:01:31.050Z,91.90
2019-01-18T20:01:53.584Z,92.00
2019-01-18T20:02:16.190Z,92.10
2019-01-18T20:02:38.790Z,92.10
2019-01-18T20:03:01.822Z,92.10
2019-01-18T20:03:24.546Z,92.10
2019-01-18T20:03:47.249Z,92.10
2019-01-18T20:04:11.597Z,92.00
2019-01-18T20:04:34.312Z,91.80
2019-01-18T20:04:56.970Z,91.70
2019-01-18T20:05:19.549Z,91.70
2019-01-18T20:05:44.268Z,91.60
2019-01-18T20:06:07.389Z,91.50
2019-01-18T20:06:29.877Z,91.40
2019-01-18T20:06:52.496Z,91.40
2019-01-18T20:07:15.076Z,91.40
2019-01-18T20:07:37.690Z,91.40
2019-01-18T20:08:00.243Z,91.40
2019-01-18T20:08:23.009Z,91.40
2019-01-18T20:08:45.650Z,91.50
2019-01-18T20:09:09.829Z,91.50
2019-01-18T20:09:32.650Z,91.60
2019-01-18T20:09:55.330Z,91.60
2019-01-18T20:10:20.511Z,91.80
2019-01-18T20:10:42.429Z,91.90
2019-01-18T20:11:05.309Z,91.80
2019-01-18T20:11:28.091Z,91.60
2019-01-18T20:11:50.692Z,91.50
2019-01-18T20:12:13.290Z,91.40
2019-01-18T20:12:35.877Z,91.40
2019-01-18T20:12:58.509Z,91.30
2019-01-18T20:13:21.150Z,91.30
2019-01-18T20:13:43.770Z,91.20
2019-01-18T20:14:06.469Z,91.40
2019-01-18T20:14:29.230Z,91.50
2019-01-18T20:14:51.890Z,91.40
2019-01-18T20:15:14.673Z,91.40
2019-01-18T20:15:37.289Z,91.30
2019-01-18T20:16:00.090Z,91.40
2019-01-18T20:16:22.831Z,91.50
2019-01-18T20:16:45.529Z,91.60
2019-01-18T20:17:08.090Z,91.50
2019-01-18T20:17:31.150Z,91.30
2019-01-18T20:17:53.791Z,91.00
2019-01-18T20:18:16.469Z,90.70
2019-01-18T20:18:40.610Z,90.60
2019-01-18T20:19:03.121Z,90.60
2019-01-18T20:19:25.742Z,90.60
2019-01-18T20:19:48.511Z,90.50
2019-01-18T20:20:11.173Z,90.20
2019-01-18T20:20:33.732Z,90.20
2019-01-18T20:20:56.383Z,90.00
2019-01-18T20:21:18.928Z,89.50
2019-01-18T20:21:41.559Z,89.50
2019-01-18T20:22:05.531Z,89.90
2019-01-18T20:22:28.161Z,89.90
2019-01-18T20:22:50.740Z,90.20
2019-01-18T20:23:13.334Z,90.60
2019-01-18T20:23:36.510Z,90.80
2019-01-18T20:23:59.105Z,90.80
2019-01-18T20:24:21.851Z,90.80
2019-01-18T20:24:44.933Z,91.00
2019-01-18T20:25:07.585Z,91.00
2019-01-18T20:25:31.831Z,91.00
2019-01-18T20:25:54.392Z,90.90
2019-01-18T20:26:17.051Z,90.80
2019-01-18T20:26:40.751Z,90.80
2019-01-18T20:27:03.330Z,90.80
2019-01-18T20:27:25.972Z,90.50
2019-01-18T20:27:48.592Z,90.50
2019-01-18T20:28:12.572Z,90.40
2019-01-18T20:28:35.233Z,90.10
2019-01-18T20:28:57.987Z,89.80
2019-01-18T20:29:20.732Z,89.50
2019-01-18T20:29:43.693Z,89.50
2019-01-18T20:30:06.246Z,90.10
2019-01-18T20:30:28.865Z,90.30
2019-01-18T20:30:51.515Z,90.60
2019-01-18T20:31:14.146Z,90.70
2019-01-18T20:31:36.932Z,90.50
2019-01-18T20:31:59.740Z,90.20
2019-01-18T20:32:22.393Z,90.10
2019-01-18T20:32:45.185Z,90.20
2019-01-18T20:33:07.951Z,90.40
2019-01-18T20:33:32.546Z,90.40
2019-01-18T20:33:55.130Z,90.30
2019-01-18T20:34:18.484Z,90.40
2019-01-18T20:34:41.664Z,89.40
2019-01-18T20:35:04.290Z,88.10
2019-01-18T20:35:27.030Z,87.00
2019-01-18T20:35:49.709Z,87.10
2019-01-18T20:36:12.411Z,87.70
2019-01-18T20:36:34.970Z,87.60
2019-01-18T20:36:57.690Z,87.20
2019-01-18T20:37:20.291Z,87.30
2019-01-18T20:37:42.970Z,87.40
2019-01-18T20:38:05.823Z,86.60
2019-01-18T20:38:28.630Z,87.20
2019-01-18T20:38:51.310Z,87.80
2019-01-18T20:39:13.910Z,87.70
2019-01-18T20:39:37.020Z,85.80
2019-01-18T20:39:59.883Z,85.30
2019-01-18T20:40:22.450Z,83.80
2019-01-18T20:40:46.493Z,83.40
2019-01-18T20:41:10.159Z,85.00
2019-01-18T20:41:33.037Z,83.50
2019-01-18T20:41:55.594Z,84.30
2019-01-18T20:42:19.709Z,85.10
2019-01-18T20:42:42.290Z,85.20
2019-01-18T20:43:04.932Z,85.00
2019-01-18T20:43:27.690Z,84.70
2019-01-18T20:43:50.453Z,85.00
2019-01-18T20:44:14.465Z,85.80
2019-01-18T20:44:37.271Z,86.80
2019-01-18T20:45:00.030Z,87.40
2019-01-18T20:45:22.830Z,86.80
2019-01-18T20:45:45.569Z,86.90
2019-01-18T20:46:08.251Z,86.40
2019-01-18T20:46:31.111Z,86.70
2019-01-18T20:46:53.851Z,87.10
2019-01-18T20:47:16.510Z,87.80
2019-01-18T20:47:39.370Z,86.60
2019-01-18T20:48:02.069Z,85.40
2019-01-18T20:48:24.703Z,85.40
2019-01-18T20:48:47.683Z,86.30
2019-01-18T20:49:10.464Z,85.40
2019-01-18T20:49:33.090Z,85.20
2019-01-18T20:49:55.714Z,84.90
2019-01-18T20:50:18.450Z,85.20
2019-01-18T20:50:41.610Z,84.90
2019-01-18T20:51:04.966Z,86.00
2019-01-18T20:51:27.624Z,85.70
2019-01-18T20:51:50.550Z,83.80
2019-01-18T20:52:13.187Z,83.80
2019-01-18T20:52:35.752Z,84.20
2019-01-18T20:52:58.790Z,85.20
2019-01-18T20:53:21.332Z,85.70
2019-01-18T20:53:43.906Z,85.10
2019-01-18T20:54:06.462Z,85.90
2019-01-18T20:54:30.010Z,86.00
2019-01-18T20:54:52.653Z,86.50
2019-01-18T20:55:15.167Z,86.00
2019-01-18T20:55:37.779Z,84.90
2019-01-18T20:56:00.410Z,85.80
2019-01-18T20:56:22.998Z,86.80
2019-01-18T20:56:45.610Z,86.50
2019-01-18T20:57:08.210Z,85.90
2019-01-18T20:57:30.951Z,85.80
2019-01-18T20:57:53.913Z,86.00
2019-01-18T20:58:16.511Z,86.10
2019-01-18T20:58:39.572Z,86.20
2019-01-18T20:59:02.200Z,86.00
2019-01-18T20:59:24.886Z,85.60
2019-01-18T20:59:47.644Z,85.60
2019-01-18T21:00:10.293Z,85.70
2019-01-18T21:00:32.858Z,85.40
2019-01-18T21:00:56.329Z,84.70
2019-01-18T21:01:19.152Z,84.50
2019-01-18T21:01:41.873Z,85.30
2019-01-18T21:02:04.473Z,85.70
2019-01-18T21:02:27.113Z,85.90
2019-01-18T21:02:50.915Z,86.20
2019-01-18T21:03:13.664Z,86.80
2019-01-18T21:03:36.376Z,87.10
2019-01-18T21:03:59.034Z,87.20
2019-01-18T21:04:26.451Z,87.20
2019-01-18T21:04:46.057Z,85.20
2019-01-18T21:05:08.628Z,85.90
2019-01-18T21:05:31.387Z,85.50
2019-01-18T21:05:54.450Z,85.50
2019-01-18T21:06:17.215Z,84.80
2019-01-18T21:06:39.912Z,83.30
2019-01-18T21:07:02.594Z,83.50
2019-01-18T21:07:25.272Z,83.60
2019-01-18T21:07:47.831Z,83.60
2019-01-18T21:08:10.427Z,83.00
2019-01-18T21:08:33.002Z,83.30
2019-01-18T21:08:56.633Z,84.70
2019-01-18T21:09:19.272Z,85.50
2019-01-18T21:09:41.961Z,86.30
2019-01-18T21:10:04.531Z,86.80
2019-01-18T21:10:27.244Z,86.90
2019-01-18T21:10:49.951Z,87.30
2019-01-18T21:11:12.579Z,86.30
2019-01-18T21:11:35.229Z,87.60
2019-01-18T21:11:57.771Z,88.00
2019-01-18T21:12:20.351Z,88.70
2019-01-18T21:12:42.945Z,88.90
2019-01-18T21:13:05.559Z,89.20
2019-01-18T21:13:28.660Z,89.20
2019-01-18T21:13:51.206Z,89.60
2019-01-18T21:14:13.828Z,89.70
2019-01-18T21:14:37.461Z,90.00
2019-01-18T21:15:00.023Z,90.00
2019-01-18T21:15:22.632Z,90.00
2019-01-18T21:15:45.157Z,90.30
2019-01-18T21:16:07.838Z,90.70
2019-01-18T21:16:30.442Z,90.50
2019-01-18T21:16:53.144Z,90.40
2019-01-18T21:17:15.752Z,90.60
2019-01-18T21:17:38.305Z,91.00
2019-01-18T21:18:01.028Z,91.10
2019-01-18T21:18:23.542Z,90.90
2019-01-18T21:18:46.153Z,90.80
2019-01-18T21:19:08.847Z,90.70
2019-01-18T21:19:31.702Z,90.80
2019-01-18T21:19:54.351Z,90.40
2019-01-18T21:20:17.040Z,90.20
2019-01-18T21:20:39.608Z,89.70
2019-01-18T21:21:02.309Z,89.00
2019-01-18T21:21:24.911Z,89.80
2019-01-18T21:21:47.472Z,89.20
2019-01-18T21:22:10.015Z,88.70
2019-01-18T21:22:32.623Z,88.70
2019-01-18T21:22:55.245Z,88.40
2019-01-18T21:23:20.368Z,89.00
2019-01-18T21:23:43.114Z,88.60
2019-01-18T21:24:05.738Z,88.50
2019-01-18T21:24:28.290Z,88.70
2019-01-18T21:24:50.893Z,88.30
2019-01-18T21:25:13.489Z,88.50
2019-01-18T21:25:36.020Z,89.10
2019-01-18T21:25:58.629Z,89.50
2019-01-18T21:26:21.287Z,89.90
2019-01-18T21:26:43.817Z,90.20
2019-01-18T21:27:06.593Z,90.20
2019-01-18T21:27:29.312Z,90.20
2019-01-18T21:27:52.387Z,90.50
2019-01-18T21:28:15.043Z,90.40
2019-01-18T21:28:37.794Z,90.00
2019-01-18T21:29:00.332Z,90.20
2019-01-18T21:29:22.914Z,90.20
2019-01-18T21:29:45.434Z,90.00
2019-01-18T21:30:07.977Z,89.00
2019-01-18T21:30:30.539Z,87.70
2019-01-18T21:30:53.118Z,87.00
2019-01-18T21:31:15.624Z,86.20
2019-01-18T21:31:38.315Z,86.10
2019-01-18T21:32:01.034Z,85.10
2019-01-18T21:32:23.973Z,83.90
2019-01-18T21:32:46.844Z,83.70
2019-01-18T21:33:09.475Z,84.40
2019-01-18T21:33:32.034Z,83.80
2019-01-18T21:33:54.545Z,83.30
2019-01-18T21:34:18.788Z,83.80
2019-01-18T21:34:41.439Z,84.00
2019-01-18T21:35:04.058Z,83.60
2019-01-18T21:35:26.606Z,84.30
2019-01-18T21:35:49.200Z,82.80
2019-01-18T21:36:11.817Z,83.10
2019-01-18T21:36:34.317Z,83.00
2019-01-18T21:36:56.954Z,83.80
2019-01-18T21:37:19.775Z,83.80
2019-01-18T21:37:42.462Z,84.20
2019-01-18T21:38:04.982Z,84.30
2019-01-18T21:38:27.701Z,84.70
2019-01-18T21:38:50.238Z,85.30
2019-01-18T21:39:12.852Z,84.70
2019-01-18T21:39:35.867Z,83.70
2019-01-18T21:39:58.436Z,83.80
2019-01-18T21:40:21.031Z,84.60
2019-01-18T21:40:43.587Z,85.00
2019-01-18T21:41:06.286Z,85.30
2019-01-18T21:41:29.027Z,85.00
2019-01-18T21:41:51.676Z,84.70
2019-01-18T21:42:14.330Z,85.50
2019-01-18T21:42:37.221Z,85.40
2019-01-18T21:42:59.751Z,86.00
2019-01-18T21:43:22.833Z,85.90
2019-01-18T21:43:45.432Z,85.50
2019-01-18T21:44:08.157Z,85.20
2019-01-18T21:44:30.917Z,85.40
2019-01-18T21:44:54.370Z,85.90
2019-01-18T21:45:17.463Z,86.50
2019-01-18T21:45:40.086Z,88.00
2019-01-18T21:46:02.885Z,88.00
2019-01-18T21:46:25.498Z,88.20
2019-01-18T21:46:48.256Z,88.30
2019-01-18T21:47:10.815Z,88.30
2019-01-18T21:47:33.453Z,88.40
2019-01-18T21:47:56.135Z,88.70
2019-01-18T21:48:19.327Z,88.90
2019-01-18T21:48:41.958Z,89.20
2019-01-18T21:49:04.672Z,89.10
2019-01-18T21:49:27.294Z,89.30
2019-01-18T21:49:49.912Z,89.10
2019-01-18T21:50:12.466Z,88.90
2019-01-18T21:50:35.066Z,88.90
2019-01-18T21:50:57.751Z,88.60
2019-01-18T21:51:20.351Z,88.70
2019-01-18T21:51:43.160Z,88.10
2019-01-18T21:52:06.959Z,88.10
2019-01-18T21:52:29.651Z,89.30
2019-01-18T21:52:52.734Z,89.30
2019-01-18T21:53:15.378Z,88.60
2019-01-18T21:53:37.987Z,87.60
2019-01-18T21:54:00.653Z,87.70
2019-01-18T21:54:23.557Z,87.20
2019-01-18T21:54:46.114Z,87.00
2019-01-18T21:55:08.736Z,87.40
2019-01-18T21:55:32.272Z,86.70
2019-01-18T21:55:54.806Z,87.50
2019-01-18T21:56:17.395Z,86.90
2019-01-18T21:56:40.493Z,86.50
2019-01-18T21:57:03.494Z,86.00
2019-01-18T21:57:26.136Z,85.80
2019-01-18T21:57:48.932Z,86.50
2019-01-18T21:58:11.653Z,86.10
2019-01-18T21:58:34.514Z,85.40
2019-01-18T21:58:57.068Z,84.30
2019-01-18T21:59:19.661Z,84.00
2019-01-18T21:59:42.354Z,84.60
2019-01-18T22:00:04.953Z,85.40
2019-01-18T22:00:27.636Z,85.60
2019-01-18T22:00:50.296Z,85.80
2019-01-18T22:01:13.023Z,86.20
2019-01-18T22:01:35.812Z,86.20
2019-01-18T22:01:58.853Z,86.80
2019-01-18T22:02:21.510Z,87.50
2019-01-18T22:02:44.271Z,87.30
2019-01-18T22:03:06.972Z,87.40
2019-01-18T22:03:29.710Z,86.90
2019-01-18T22:03:52.481Z,86.70
2019-01-18T22:04:15.109Z,85.50
2019-01-18T22:04:40.653Z,86.70
2019-01-18T22:05:01.911Z,86.70
2019-01-18T22:05:24.635Z,86.80
2019-01-18T22:05:47.132Z,87.00
2019-01-18T22:06:10.097Z,86.60
2019-01-18T22:06:32.852Z,85.40
2019-01-18T22:06:55.512Z,85.60
2019-01-18T22:07:18.143Z,87.00
2019-01-18T22:07:40.832Z,86.00
2019-01-18T22:08:03.456Z,85.50
2019-01-18T22:08:26.034Z,86.10
2019-01-18T22:08:48.672Z,86.90
2019-01-18T22:09:11.309Z,87.30
2019-01-18T22:09:34.144Z,86.70
2019-01-18T22:09:56.718Z,86.80
2019-01-18T22:10:19.364Z,87.10
2019-01-18T22:10:41.966Z,87.00
2019-01-18T22:11:04.793Z,87.30
2019-01-18T22:11:27.392Z,87.80
2019-01-18T22:11:50.552Z,88.40
2019-01-18T22:12:13.411Z,88.40
2019-01-18T22:12:39.423Z,88.50
2019-01-18T22:13:00.250Z,88.40
2019-01-18T22:13:24.370Z,88.10
2019-01-18T22:13:47.411Z,88.10
2019-01-18T22:14:09.916Z,88.70
2019-01-18T22:14:32.476Z,88.50
2019-01-18T22:14:55.079Z,87.80
2019-01-18T22:15:17.702Z,87.30
2019-01-18T22:15:40.271Z,86.80
2019-01-18T22:16:02.818Z,86.70
2019-01-18T22:16:25.418Z,86.50
2019-01-18T22:16:47.990Z,86.60
2019-01-18T22:17:10.531Z,86.60
2019-01-18T22:17:33.136Z,87.60
2019-01-18T22:17:55.710Z,87.80
2019-01-18T22:18:18.262Z,87.10
2019-01-18T22:18:40.871Z,86.70
2019-01-18T22:19:03.391Z,86.90
2019-01-18T22:19:25.952Z,87.60
2019-01-18T22:19:48.708Z,87.70
2019-01-18T22:20:11.230Z,87.50
2019-01-18T22:20:33.880Z,87.60
2019-01-18T22:20:56.421Z,87.00
2019-01-18T22:21:18.991Z,87.10
2019-01-18T22:21:41.829Z,87.40
2019-01-18T22:22:04.510Z,87.90
2019-01-18T22:22:27.266Z,88.00
2019-01-18T22:22:50.950Z,88.40
2019-01-18T22:23:13.730Z,88.80
2019-01-18T22:23:37.664Z,88.70
2019-01-18T22:24:00.510Z,88.60
2019-01-18T22:24:23.232Z,88.50
2019-01-18T22:24:46.090Z,88.60
2019-01-18T22:25:09.288Z,88.00
2019-01-18T22:25:31.968Z,88.50
2019-01-18T22:25:54.531Z,87.90
2019-01-18T22:26:17.148Z,87.60
2019-01-18T22:26:39.768Z,86.90
2019-01-18T22:27:02.684Z,87.30
2019-01-18T22:27:25.332Z,87.50
2019-01-18T22:27:50.471Z,86.90
2019-01-18T22:28:13.178Z,86.70
2019-01-18T22:28:35.688Z,87.50
2019-01-18T22:28:58.308Z,88.10
2019-01-18T22:29:20.991Z,88.30
2019-01-18T22:29:43.670Z,87.90
2019-01-18T22:30:06.710Z,88.40
2019-01-18T22:30:29.308Z,89.20
2019-01-18T22:30:52.148Z,88.80
2019-01-18T22:31:14.808Z,88.50
2019-01-18T22:31:37.471Z,88.40
2019-01-18T22:32:00.810Z,88.40
2019-01-18T22:32:24.930Z,88.50
2019-01-18T22:32:47.910Z,89.10
2019-01-18T22:33:10.568Z,88.60
2019-01-18T22:33:33.184Z,88.00
2019-01-18T22:33:55.968Z,87.50
2019-01-18T22:34:18.732Z,87.20
2019-01-18T22:34:47.591Z,87.70
2019-01-18T22:35:05.656Z,88.30
2019-01-18T22:35:28.288Z,89.10
2019-01-18T22:35:50.830Z,88.90
2019-01-18T22:36:13.529Z,88.40
2019-01-18T22:36:36.188Z,88.70
2019-01-18T22:36:59.352Z,89.50
2019-01-18T22:37:22.607Z,90.00
2019-01-18T22:37:45.660Z,90.10
2019-01-18T22:38:08.347Z,90.10
2019-01-18T22:38:31.169Z,90.20
2019-01-18T22:38:53.821Z,90.20
2019-01-18T22:39:19.744Z,90.10
2019-01-18T22:39:42.468Z,90.00
2019-01-18T22:40:04.987Z,90.10
2019-01-18T22:40:27.688Z,90.10
2019-01-18T22:40:50.668Z,90.10
2019-01-18T22:41:13.230Z,90.00
2019-01-18T22:41:36.028Z,90.10
2019-01-18T22:41:59.128Z,89.90
2019-01-18T22:42:21.767Z,89.60
2019-01-18T22:42:44.308Z,89.50
2019-01-18T22:43:06.943Z,89.00
2019-01-18T22:43:29.662Z,89.30
2019-01-18T22:43:52.327Z,89.80
2019-01-18T22:44:15.070Z,89.90
2019-01-18T22:44:37.631Z,89.60
2019-01-18T22:45:00.188Z,89.60
2019-01-18T22:45:22.848Z,90.00
2019-01-18T22:45:45.708Z,90.00
2019-01-18T22:46:08.430Z,90.30
2019-01-18T22:46:31.173Z,90.30
2019-01-18T22:46:54.009Z,90.40
2019-01-18T22:47:16.614Z,90.30
2019-01-18T22:47:39.228Z,90.30
2019-01-18T22:48:01.796Z,90.40
2019-01-18T22:48:24.383Z,90.40
2019-01-18T22:48:47.011Z,90.30
2019-01-18T22:49:09.551Z,90.00
2019-01-18T22:49:32.209Z,89.90
2019-01-18T22:49:54.942Z,90.00
2019-01-18T22:50:17.568Z,90.10
2019-01-18T22:50:40.371Z,90.00
2019-01-18T22:51:02.890Z,90.00
2019-01-18T22:51:25.628Z,90.00
2019-01-18T22:51:48.169Z,90.00
2019-01-18T22:52:10.768Z,90.00
2019-01-18T22:52:33.368Z,90.10
2019-01-18T22:52:56.189Z,90.20
2019-01-18T22:53:18.831Z,90.00
2019-01-18T22:53:41.368Z,89.70
2019-01-18T22:54:03.972Z,89.50
2019-01-18T22:54:26.624Z,89.90
2019-01-18T22:54:49.248Z,89.90
2019-01-18T22:55:11.968Z,90.00
2019-01-18T22:55:34.727Z,89.90
2019-01-18T22:55:57.847Z,89.80
2019-01-18T22:56:20.707Z,90.00
2019-01-18T22:56:43.902Z,90.00
2019-01-18T22:57:06.623Z,89.80
2019-01-18T22:57:29.268Z,90.00
2019-01-18T22:57:51.872Z,90.10
2019-01-18T22:58:14.510Z,90.10
2019-01-18T22:58:37.213Z,90.00
2019-01-18T22:59:00.111Z,89.80
2019-01-18T22:59:22.688Z,89.90
2019-01-18T22:59:45.408Z,90.00
2019-01-18T23:00:09.590Z,90.00
2019-01-18T23:00:33.868Z,90.10
2019-01-18T23:01:00.970Z,90.10
2019-01-18T23:01:23.628Z,90.30
2019-01-18T23:01:46.268Z,90.30
2019-01-18T23:02:08.930Z,90.30
2019-01-18T23:02:31.490Z,90.70
2019-01-18T23:02:54.143Z,90.80
2019-01-18T23:03:16.862Z,90.80
2019-01-18T23:03:40.010Z,90.80
2019-01-18T23:04:02.628Z,90.80
2019-01-18T23:04:25.390Z,90.80
2019-01-18T23:04:55.282Z,90.70
2019-01-18T23:05:12.989Z,90.30
2019-01-18T23:05:35.743Z,89.30
2019-01-18T23:05:58.414Z,89.20
2019-01-18T23:06:22.070Z,89.30
2019-01-18T23:06:45.114Z,89.10
2019-01-18T23:07:07.809Z,89.30
2019-01-18T23:07:30.447Z,89.20
2019-01-18T23:07:53.110Z,89.00
2019-01-18T23:08:15.729Z,89.90
2019-01-18T23:08:38.479Z,89.80
2019-01-18T23:09:01.236Z,89.40
2019-01-18T23:09:24.497Z,88.90
2019-01-18T23:09:47.110Z,88.60
2019-01-18T23:10:09.807Z,88.40
2019-01-18T23:10:32.450Z,89.10
2019-01-18T23:10:55.268Z,89.50
2019-01-18T23:11:18.349Z,88.80
2019-01-18T23:11:41.025Z,88.90
2019-01-18T23:12:03.529Z,88.90
2019-01-18T23:12:26.148Z,89.00
2019-01-18T23:12:48.808Z,89.10
2019-01-18T23:13:11.748Z,89.10
2019-01-18T23:13:34.430Z,89.40
2019-01-18T23:13:57.047Z,89.30
2019-01-18T23:14:19.670Z,89.80
2019-01-18T23:14:44.783Z,89.80
2019-01-18T23:15:07.358Z,88.90
2019-01-18T23:15:30.289Z,88.20
2019-01-18T23:15:53.608Z,88.40
2019-01-18T23:16:16.348Z,88.40
2019-01-18T23:16:39.291Z,88.50
2019-01-18T23:17:01.821Z,88.70
2019-01-18T23:17:24.650Z,88.90
2019-01-18T23:17:47.310Z,88.70
2019-01-18T23:18:09.982Z,88.80
2019-01-18T23:18:32.676Z,88.40
2019-01-18T23:18:55.610Z,88.60
2019-01-18T23:19:18.459Z,88.90
2019-01-18T23:19:41.228Z,89.40
2019-01-18T23:20:03.764Z,89.40
2019-01-18T23:20:26.450Z,89.60
2019-01-18T23:20:48.990Z,90.00
2019-01-18T23:21:11.741Z,90.00
2019-01-18T23:21:34.457Z,90.10
2019-01-18T23:21:57.570Z,90.10
2019-01-18T23:22:20.171Z,90.20
2019-01-18T23:22:42.929Z,90.10
2019-01-18T23:23:05.663Z,90.10
2019-01-18T23:23:28.347Z,90.10
2019-01-18T23:23:51.470Z,90.30
2019-01-18T23:24:14.129Z,89.30
2019-01-18T23:24:37.188Z,89.30
2019-01-18T23:24:59.903Z,88.80
2019-01-18T23:25:22.632Z,89.30
2019-01-18T23:25:45.428Z,89.00
2019-01-18T23:26:08.069Z,89.00